Time;durP1;ratioP1;P1;durP2;ratioP2;P2;SDS_P1;SDS_P2;PMS_P1;PMS_P2;Temp;Humidity;BMP_temperature;BMP_pressure;BME280_temperature;BME280_humidity;BME280_pressure;Samples;Min_cycle;Max_cycle;Signal;HPM_P1;HPM_P2
2021/04/28 00:01:01;;;;;;;5.83;4.70;;;6.40;97.50;;;;;;5095660;23;20454;-82
2021/04/28 00:03:05;;;;;;;5.50;4.90;;;6.40;97.60;;;;;;5095559;23;20509;-82
2021/04/28 00:05:10;;;;;;;4.93;4.43;;;6.30;97.80;;;;;;5096640;23;20450;-83
2021/04/28 00:07:12;;;;;;;6.73;4.70;;;6.30;97.80;;;;;;5104391;23;20537;-83
2021/04/28 00:09:15;;;;;;;4.63;3.87;;;6.20;98.00;;;;;;5095974;23;20485;-83
2021/04/28 00:11:16;;;;;;;6.50;4.47;;;6.20;97.80;;;;;;5104417;23;20467;-84
2021/04/28 00:13:18;;;;;;;4.83;4.33;;;6.20;97.80;;;;;;5096281;23;20557;-83
2021/04/28 00:15:22;;;;;;;5.37;4.20;;;6.30;97.90;;;;;;5095765;23;20454;-83
2021/04/28 00:17:24;;;;;;;6.27;4.20;;;6.30;97.50;;;;;;5105004;23;20524;-84
2021/04/28 00:19:27;;;;;;;6.33;4.50;;;6.30;97.20;;;;;;5097257;23;20469;-83
2021/04/28 00:21:31;;;;;;;7.03;4.50;;;6.20;97.60;;;;;;5105849;23;20478;-83
2021/04/28 00:23:34;;;;;;;8.03;5.13;;;6.20;97.80;;;;;;5106698;23;20474;-83
2021/04/28 00:25:37;;;;;;;4.73;4.30;;;6.20;97.60;;;;;;5097489;23;20480;-83
2021/04/28 00:27:39;;;;;;;5.77;4.73;;;6.20;97.60;;;;;;5105355;23;20446;-83
2021/04/28 00:29:41;;;;;;;5.47;4.40;;;6.20;97.50;;;;;;5105499;23;20825;-83
2021/04/28 00:31:43;;;;;;;6.57;3.90;;;6.20;97.10;;;;;;5106853;23;20516;-82
2021/04/28 00:33:46;;;;;;;6.10;4.23;;;6.20;97.30;;;;;;5097526;23;20508;-84
2021/04/28 00:35:48;;;;;;;4.67;3.93;;;6.20;97.20;;;;;;5106016;23;20462;-83
2021/04/28 00:37:56;;;;;;;4.70;4.17;;;6.10;97.50;;;;;;5095834;23;20485;-83
2021/04/28 00:39:58;;;;;;;4.90;4.40;;;6.00;97.50;;;;;;5095319;23;20454;-82
2021/04/28 00:42:01;;;;;;;4.83;4.03;;;6.10;97.50;;;;;;5095725;23;20545;-83
2021/04/28 00:44:03;;;;;;;19.23;5.90;;;6.10;97.10;;;;;;5104001;23;20447;-84
2021/04/28 00:46:06;;;;;;;6.37;4.40;;;6.10;97.20;;;;;;5104542;23;20846;-83
2021/04/28 00:48:10;;;;;;;7.43;4.97;;;5.90;97.70;;;;;;5103288;23;20453;-83
2021/04/28 00:50:17;;;;;;;4.50;4.10;;;6.00;97.60;;;;;;5094112;23;20539;-83
2021/04/28 00:52:19;;;;;;;6.27;4.70;;;6.10;97.20;;;;;;5102862;23;20955;-84
2021/04/28 00:54:21;;;;;;;7.83;3.93;;;6.10;97.00;;;;;;5094377;23;20871;-84
2021/04/28 00:56:23;;;;;;;4.60;3.70;;;6.20;96.80;;;;;;5094263;23;20503;-83
2021/04/28 00:58:27;;;;;;;5.83;4.83;;;6.20;96.60;;;;;;5094053;23;20470;-85
2021/04/28 01:00:30;;;;;;;4.00;3.60;;;6.10;96.60;;;;;;5094698;23;20540;-83
2021/04/28 01:02:32;;;;;;;6.33;4.87;;;6.00;96.90;;;;;;5102779;23;20448;-83
2021/04/28 01:04:34;;;;;;;4.57;3.87;;;6.10;96.70;;;;;;5094839;23;21163;-82
2021/04/28 01:06:36;;;;;;;5.03;3.50;;;5.90;97.00;;;;;;5096303;23;20522;-82
2021/04/28 01:08:42;;;;;;;4.80;3.80;;;5.90;97.20;;;;;;5097313;23;20465;-84
2021/04/28 01:10:44;;;;;;;5.80;4.53;;;5.90;97.20;;;;;;5095867;23;20542;-82
2021/04/28 01:12:48;;;;;;;6.93;4.13;;;6.00;96.90;;;;;;5094135;23;20458;-81
2021/04/28 01:14:52;;;;;;;4.27;3.67;;;6.00;96.70;;;;;;5103352;23;20840;-83
2021/04/28 01:16:54;;;;;;;6.00;4.00;;;6.10;96.60;;;;;;5101704;23;20458;-83
2021/04/28 01:18:56;;;;;;;5.50;3.57;;;6.00;96.70;;;;;;5102008;23;20457;-82
2021/04/28 01:20:58;;;;;;;8.50;4.03;;;6.00;96.50;;;;;;5095907;23;20461;-82
2021/04/28 01:23:01;;;;;;;4.37;3.67;;;6.00;96.40;;;;;;5102871;23;20485;-83
2021/04/28 01:25:05;;;;;;;6.37;3.77;;;5.90;96.70;;;;;;5093639;23;20916;-82
2021/04/28 01:27:15;;;;;;;5.40;3.87;;;5.80;97.10;;;;;;5103505;23;20453;-84
2021/04/28 01:29:20;;;;;;;11.70;8.27;;;5.90;96.70;;;;;;5103612;23;20509;-82
2021/04/28 01:31:24;;;;;;;10.20;4.63;;;5.90;96.90;;;;;;5095677;23;20788;-83
2021/04/28 01:33:32;;;;;;;4.67;3.73;;;5.90;96.40;;;;;;5102833;23;20805;-82
2021/04/28 01:35:34;;;;;;;4.10;3.70;;;5.80;96.80;;;;;;5103359;23;20449;-82
2021/04/28 01:37:37;;;;;;;6.90;4.23;;;5.70;96.90;;;;;;5094599;23;20465;-83
2021/04/28 01:39:41;;;;;;;6.57;3.33;;;5.80;96.90;;;;;;5095789;23;20461;-83
2021/04/28 01:41:45;;;;;;;3.77;3.43;;;5.70;97.00;;;;;;5103308;23;20480;-82
2021/04/28 01:43:48;;;;;;;6.13;3.90;;;5.70;97.00;;;;;;5096177;23;20453;-83
2021/04/28 01:45:51;;;;;;;5.67;4.10;;;5.60;97.40;;;;;;5096051;23;20457;-83
2021/04/28 01:47:54;;;;;;;4.07;3.37;;;5.60;97.40;;;;;;5095891;23;20942;-82
2021/04/28 01:49:57;;;;;;;4.37;3.90;;;5.60;97.10;;;;;;5094377;23;20502;-83
2021/04/28 01:52:00;;;;;;;6.53;5.20;;;5.70;97.10;;;;;;5096007;23;20459;-83
2021/04/28 01:54:04;;;;;;;7.20;5.60;;;5.70;96.80;;;;;;5095660;23;20499;-84
2021/04/28 01:56:07;;;;;;;5.47;4.63;;;5.70;96.60;;;;;;5095597;23;20465;-83
2021/04/28 01:58:10;;;;;;;4.23;3.47;;;5.80;96.30;;;;;;5094561;23;20526;-83
2021/04/28 02:00:16;;;;;;;3.90;3.53;;;5.80;96.40;;;;;;5104441;23;20532;-83
2021/04/28 02:02:18;;;;;;;5.63;4.10;;;5.80;96.20;;;;;;5104651;23;20457;-84
2021/04/28 02:04:21;;;;;;;4.33;3.93;;;5.80;96.00;;;;;;5104392;23;20519;-83
2021/04/28 02:06:24;;;;;;;9.60;6.87;;;5.80;95.90;;;;;;5095689;23;20460;-83
2021/04/28 02:08:27;;;;;;;10.43;7.17;;;5.90;95.60;;;;;;5103100;23;20451;-83
2021/04/28 02:10:29;;;;;;;7.10;4.47;;;5.80;95.80;;;;;;5096823;23;20493;-82
2021/04/28 02:12:32;;;;;;;4.90;4.50;;;5.80;95.80;;;;;;5097016;23;20525;-83
2021/04/28 02:14:35;;;;;;;4.70;3.93;;;5.80;95.70;;;;;;5096218;23;20465;-84
2021/04/28 02:16:39;;;;;;;4.13;3.53;;;5.70;95.90;;;;;;5095025;23;20465;-83
2021/04/28 02:18:43;;;;;;;4.30;3.57;;;5.70;96.00;;;;;;5093444;23;20457;-84
2021/04/28 02:20:45;;;;;;;4.40;3.97;;;5.70;96.10;;;;;;5102996;23;20536;-84
2021/04/28 02:22:48;;;;;;;4.13;3.20;;;5.70;96.00;;;;;;5094689;23;20469;-83
2021/04/28 02:24:50;;;;;;;4.27;3.80;;;5.70;95.90;;;;;;5094321;23;20473;-82
2021/04/28 02:26:57;;;;;;;5.30;3.73;;;5.70;95.80;;;;;;5094720;23;20920;-82
2021/04/28 02:29:00;;;;;;;5.17;3.50;;;5.80;95.70;;;;;;5101760;23;20445;-83
2021/04/28 02:31:03;;;;;;;4.83;3.67;;;5.80;95.50;;;;;;5095093;23;20457;-84
2021/04/28 02:33:05;;;;;;;3.80;3.20;;;5.80;95.60;;;;;;5095523;23;20529;-84
2021/04/28 02:35:09;;;;;;;4.33;3.93;;;5.90;95.30;;;;;;5102726;23;21084;-82
2021/04/28 02:37:11;;;;;;;4.90;4.03;;;5.80;95.40;;;;;;5103842;23;20542;-84
2021/04/28 02:39:17;;;;;;;4.93;3.73;;;5.80;95.60;;;;;;5103309;23;20464;-83
2021/04/28 02:41:22;;;;;;;3.77;3.47;;;5.70;95.50;;;;;;5103407;23;20459;-83
2021/04/28 02:43:24;;;;;;;3.90;3.50;;;5.70;95.80;;;;;;5103385;23;20505;-82
2021/04/28 02:45:28;;;;;;;4.80;3.90;;;5.70;95.70;;;;;;5093909;23;20462;-83
2021/04/28 02:47:32;;;;;;;7.90;4.07;;;5.70;95.90;;;;;;5099583;23;20456;-82
2021/04/28 02:49:38;;;;;;;7.37;4.50;;;5.80;95.80;;;;;;5090966;23;20449;-84
2021/04/28 02:51:41;;;;;;;56.33;35.67;;;5.80;95.80;;;;;;5099893;23;20528;-83
2021/04/28 02:53:44;;;;;;;97.47;58.37;;;6.00;95.50;;;;;;5102292;23;20518;-83
2021/04/28 02:55:54;;;;;;;21.47;14.30;;;6.10;95.10;;;;;;5101578;23;20504;-83
2021/04/28 02:57:56;;;;;;;8.43;5.73;;;6.10;94.90;;;;;;5094397;23;21146;-83
2021/04/28 03:00:00;;;;;;;7.30;5.07;;;6.00;95.00;;;;;;5095315;23;20450;-83
2021/04/28 03:02:03;;;;;;;5.10;4.13;;;6.10;94.80;;;;;;5103389;23;20453;-82
2021/04/28 03:04:06;;;;;;;6.30;3.80;;;6.00;94.80;;;;;;5102900;23;20509;-83
2021/04/28 03:06:10;;;;;;;4.47;4.07;;;6.00;94.70;;;;;;5094654;23;21174;-84
2021/04/28 03:08:12;;;;;;;5.60;3.50;;;6.00;94.80;;;;;;5095205;23;20458;-83
2021/04/28 03:10:15;;;;;;;3.97;3.57;;;5.80;95.00;;;;;;5103224;23;20461;-83
2021/04/28 03:12:17;;;;;;;5.13;3.70;;;5.80;95.10;;;;;;5101419;23;20456;-83
2021/04/28 03:14:20;;;;;;;4.20;3.80;;;5.70;95.10;;;;;;5093797;23;20461;-84
2021/04/28 03:16:23;;;;;;;4.07;3.67;;;5.70;95.30;;;;;;5092996;23;20536;-83
2021/04/28 03:20:37;;;;;;;4.53;3.83;;;5.60;95.70;;;;;;5092638;23;20485;-79
2021/04/28 03:22:40;;;;;;;4.13;3.73;;;5.50;96.00;;;;;;5092707;23;20457;-78
2021/04/28 03:24:42;;;;;;;4.10;3.53;;;5.50;96.00;;;;;;5093540;23;20489;-78
2021/04/28 03:26:44;;;;;;;4.10;3.70;;;5.50;96.10;;;;;;5094450;23;20470;-78
2021/04/28 03:28:46;;;;;;;4.47;3.67;;;5.50;96.10;;;;;;5095422;23;20515;-78
2021/04/28 03:30:48;;;;;;;4.13;3.73;;;5.40;96.00;;;;;;5100067;23;20457;-78
2021/04/28 03:32:50;;;;;;;5.13;4.00;;;5.50;96.10;;;;;;5104243;23;20768;-79
2021/04/28 03:34:52;;;;;;;5.30;3.83;;;5.50;96.00;;;;;;5096927;23;20779;-79
2021/04/28 03:36:55;;;;;;;4.37;3.27;;;5.50;95.90;;;;;;5096336;23;20930;-79
2021/04/28 03:38:57;;;;;;;6.00;3.73;;;5.50;96.00;;;;;;5094600;23;20457;-79
2021/04/28 03:40:59;;;;;;;6.83;4.07;;;5.40;96.10;;;;;;5094016;23;20978;-79
2021/04/28 03:43:01;;;;;;;5.63;4.10;;;5.50;95.90;;;;;;5094929;23;20455;-79
2021/04/28 03:45:03;;;;;;;4.90;4.13;;;5.40;96.10;;;;;;5093838;23;20457;-79
2021/04/28 03:47:05;;;;;;;8.40;4.07;;;5.40;96.20;;;;;;5094022;23;20468;-79
2021/04/28 03:49:07;;;;;;;6.30;3.40;;;5.40;96.20;;;;;;5103845;23;20453;-79
2021/04/28 03:51:09;;;;;;;3.97;3.47;;;5.20;96.40;;;;;;5095081;23;20534;-79
2021/04/28 03:53:12;;;;;;;5.73;3.90;;;5.30;96.50;;;;;;5094866;23;20461;-79
2021/04/28 03:55:14;;;;;;;5.63;3.83;;;5.20;96.80;;;;;;5095224;23;20540;-79
2021/04/28 03:57:16;;;;;;;5.93;4.00;;;5.30;96.60;;;;;;5094922;23;20788;-79
2021/04/28 03:59:18;;;;;;;12.47;9.23;;;5.30;96.60;;;;;;5102504;23;20460;-79
2021/04/28 04:01:20;;;;;;;13.13;8.23;;;5.30;96.70;;;;;;5094080;23;20467;-79
2021/04/28 04:03:22;;;;;;;6.83;4.60;;;5.20;96.90;;;;;;5106264;23;20761;-82
2021/04/28 04:05:24;;;;;;;7.80;5.30;;;5.10;97.00;;;;;;5108796;23;20455;-81
2021/04/28 04:07:27;;;;;;;8.50;4.63;;;5.10;97.20;;;;;;5100839;23;20471;-81
2021/04/28 04:09:29;;;;;;;4.70;4.20;;;5.00;97.30;;;;;;5101349;23;20741;-81
2021/04/28 04:11:31;;;;;;;6.57;4.40;;;5.00;97.60;;;;;;5100787;23;20453;-81
2021/04/28 04:13:33;;;;;;;5.20;3.97;;;5.10;97.50;;;;;;5099307;23;20510;-81
2021/04/28 04:15:35;;;;;;;5.45;4.10;;;5.00;97.40;;;;;;5100553;23;20451;-82
2021/04/28 04:17:38;;;;;;;4.43;3.97;;;5.00;97.50;;;;;;5099934;23;20208;-81
2021/04/28 04:19:40;;;;;;;4.47;4.00;;;5.00;97.60;;;;;;5098665;23;20521;-81
2021/04/28 04:21:42;;;;;;;7.07;4.03;;;5.10;97.40;;;;;;5108202;23;20210;-81
2021/04/28 04:23:44;;;;;;;5.03;4.07;;;5.00;97.50;;;;;;5108539;23;20470;-81
2021/04/28 04:25:46;;;;;;;7.00;4.77;;;5.00;97.50;;;;;;5101524;23;20528;-81
2021/04/28 04:27:48;;;;;;;4.63;4.17;;;5.10;97.40;;;;;;5110545;23;21089;-81
2021/04/28 04:29:51;;;;;;;4.90;4.40;;;5.10;97.30;;;;;;5103381;23;20464;-81
2021/04/28 04:31:54;;;;;;;4.65;3.90;;;5.10;97.30;;;;;;5109722;23;20475;-81
2021/04/28 04:33:56;;;;;;;5.57;4.30;;;5.10;97.20;;;;;;5110181;23;20208;-81
2021/04/28 04:35:58;;;;;;;4.55;4.05;;;5.10;97.40;;;;;;5110720;23;20464;-81
2021/04/28 04:38:00;;;;;;;4.90;4.47;;;5.00;97.50;;;;;;5103176;23;20216;-81
2021/04/28 04:40:02;;;;;;;6.57;4.20;;;4.90;97.80;;;;;;5100415;23;20481;-81
2021/04/28 04:42:08;;;;;;;5.93;4.65;;;5.00;97.90;;;;;;5101644;23;20905;-81
2021/04/28 04:44:10;;;;;;;6.00;4.30;;;4.90;98.00;;;;;;5107604;23;20208;-82
2021/04/28 04:46:12;;;;;;;4.90;4.38;;;4.90;98.10;;;;;;5104581;23;20457;-81
2021/04/28 04:48:14;;;;;;;5.20;4.30;;;5.00;98.00;;;;;;5096244;23;20266;-81
2021/04/28 04:50:16;;;;;;;5.10;4.47;;;5.00;97.80;;;;;;5097986;23;20204;-81
2021/04/28 04:52:18;;;;;;;5.20;4.33;;;5.00;97.80;;;;;;5097120;23;20492;-81
2021/04/28 04:54:19;;;;;;;6.13;4.40;;;5.00;97.60;;;;;;5105536;23;20448;-81
2021/04/28 04:56:21;;;;;;;6.20;4.10;;;5.10;97.50;;;;;;5105318;23;20471;-81
2021/04/28 04:58:24;;;;;;;6.33;4.30;;;5.20;97.30;;;;;;5105991;23;21226;-81
2021/04/28 05:00:26;;;;;;;10.70;8.33;;;5.30;96.90;;;;;;5098413;23;20455;-81
2021/04/28 05:02:31;;;;;;;6.35;4.68;;;5.30;96.90;;;;;;5097556;23;20507;-82
2021/04/28 05:04:34;;;;;;;6.00;4.67;;;5.30;97.00;;;;;;5105983;23;20661;-81
2021/04/28 05:06:36;;;;;;;5.50;4.50;;;5.30;96.80;;;;;;5107247;23;20880;-82
2021/04/28 05:08:38;;;;;;;5.63;4.83;;;5.40;96.80;;;;;;5098415;23;20284;-81
2021/04/28 05:10:41;;;;;;;7.17;4.47;;;5.20;96.60;;;;;;5099883;23;20468;-81
2021/04/28 05:12:46;;;;;;;6.93;4.50;;;5.20;97.00;;;;;;5107637;23;20517;-81
2021/04/28 05:14:49;;;;;;;5.93;4.40;;;5.20;96.90;;;;;;5101876;23;20510;-81
2021/04/28 05:16:51;;;;;;;6.27;4.20;;;5.20;96.80;;;;;;5108643;23;20208;-81
2021/04/28 05:18:53;;;;;;;4.87;4.47;;;5.40;96.90;;;;;;5109241;23;20538;-82
2021/04/28 05:20:55;;;;;;;5.00;4.50;;;5.40;96.20;;;;;;5101810;23;20484;-82
2021/04/28 05:22:57;;;;;;;7.47;4.23;;;5.30;96.60;;;;;;5101892;23;20463;-81
2021/04/28 05:24:59;;;;;;;5.03;4.47;;;5.40;96.60;;;;;;5101592;23;20487;-82
2021/04/28 05:27:01;;;;;;;6.40;4.77;;;5.50;96.20;;;;;;5104513;23;20455;-81
2021/04/28 05:29:03;;;;;;;9.17;5.07;;;5.50;96.10;;;;;;5102373;23;20446;-81
2021/04/28 05:31:06;;;;;;;7.23;4.97;;;5.40;96.50;;;;;;5100201;23;20463;-82
2021/04/28 05:33:08;;;;;;;5.17;4.67;;;5.40;96.50;;;;;;5101849;23;20453;-81
2021/04/28 05:35:11;;;;;;;6.03;4.70;;;5.40;96.70;;;;;;5101222;23;20494;-81
2021/04/28 05:37:17;;;;;;;8.27;5.10;;;5.50;96.60;;;;;;5099978;23;20458;-81
2021/04/28 05:39:19;;;;;;;5.93;4.60;;;5.60;96.10;;;;;;5108485;23;20459;-81
2021/04/28 05:41:21;;;;;;;8.67;5.00;;;5.80;96.00;;;;;;5111512;23;20882;-81
2021/04/28 05:43:23;;;;;;;6.90;5.30;;;5.90;95.30;;;;;;5108689;23;20451;-81
2021/04/28 05:45:25;;;;;;;5.50;4.73;;;5.80;95.60;;;;;;5107379;23;20487;-81
2021/04/28 05:47:28;;;;;;;6.90;5.43;;;5.90;95.20;;;;;;5108079;23;20809;-81
2021/04/28 05:49:30;;;;;;;6.77;4.83;;;6.00;95.00;;;;;;5106067;23;20478;-81
2021/04/28 05:51:33;;;;;;;7.40;5.30;;;6.00;94.80;;;;;;5105717;23;20454;-82
2021/04/28 05:53:35;;;;;;;6.90;5.70;;;6.20;94.60;;;;;;5106796;23;20489;-81
2021/04/28 05:55:38;;;;;;;8.10;6.10;;;6.30;94.50;;;;;;5106400;23;20523;-81
2021/04/28 05:57:40;;;;;;;6.60;5.30;;;6.40;94.10;;;;;;5105981;23;20460;-81
2021/04/28 05:59:42;;;;;;;8.17;5.60;;;6.40;93.50;;;;;;5103215;23;20461;-81
2021/04/28 06:01:44;;;;;;;8.03;4.70;;;6.50;93.50;;;;;;5095327;23;21099;-81
2021/04/28 06:03:47;;;;;;;6.53;5.13;;;6.50;93.30;;;;;;5105252;23;20532;-81
2021/04/28 06:05:49;;;;;;;6.23;5.40;;;6.60;93.10;;;;;;5100443;23;20806;-80
2021/04/28 06:07:51;;;;;;;6.47;5.07;;;6.80;92.80;;;;;;5102436;23;20986;-80
2021/04/28 06:09:53;;;;;;;6.40;4.90;;;7.00;92.00;;;;;;5095350;23;20461;-80
2021/04/28 06:11:55;;;;;;;6.70;5.20;;;7.00;91.20;;;;;;5103263;23;20450;-80
2021/04/28 06:13:57;;;;;;;6.20;5.00;;;7.10;91.30;;;;;;5095297;23;20537;-80
2021/04/28 06:15:59;;;;;;;9.40;5.27;;;7.00;91.40;;;;;;5095080;23;20990;-80
2021/04/28 06:18:01;;;;;;;6.10;5.50;;;7.10;90.80;;;;;;5095700;23;20462;-81
2021/04/28 06:20:05;;;;;;;6.80;5.50;;;7.20;90.50;;;;;;5097654;23;20513;-81
2021/04/28 06:22:07;;;;;;;6.73;4.97;;;7.30;89.60;;;;;;5106170;23;20454;-81
2021/04/28 06:24:11;;;;;;;8.37;5.27;;;7.40;90.00;;;;;;5098477;23;20891;-81
2021/04/28 06:26:13;;;;;;;5.80;5.30;;;7.50;89.40;;;;;;5107788;23;20458;-81
2021/04/28 06:28:15;;;;;;;6.77;5.83;;;7.60;89.00;;;;;;5107880;23;20486;-81
2021/04/28 06:30:17;;;;;;;9.47;7.00;;;7.80;89.10;;;;;;5109989;23;20502;-81
2021/04/28 06:32:20;;;;;;;6.27;5.60;;;7.90;87.60;;;;;;5103497;23;20546;-81
2021/04/28 06:34:24;;;;;;;5.77;5.20;;;7.90;87.30;;;;;;5104922;23;20490;-80
2021/04/28 06:36:27;;;;;;;8.60;5.90;;;7.90;88.00;;;;;;5097550;23;20550;-80
2021/04/28 06:38:29;;;;;;;5.83;5.10;;;7.90;87.20;;;;;;5095095;23;20458;-82
2021/04/28 06:40:31;;;;;;;6.07;5.37;;;7.80;86.70;;;;;;5101335;23;20479;-81
2021/04/28 06:42:33;;;;;;;7.00;5.67;;;7.90;87.00;;;;;;5108547;23;20454;-82
2021/04/28 06:44:35;;;;;;;6.60;5.70;;;8.00;86.60;;;;;;5108786;23;21029;-82
2021/04/28 06:46:38;;;;;;;8.77;5.97;;;8.10;86.10;;;;;;5100672;23;20462;-83
2021/04/28 06:48:40;;;;;;;7.40;5.60;;;8.20;86.20;;;;;;5107259;23;20509;-81
2021/04/28 06:50:42;;;;;;;7.20;5.30;;;8.40;86.30;;;;;;5104765;23;20461;-82
2021/04/28 06:52:44;;;;;;;8.00;5.60;;;8.60;86.30;;;;;;5105588;23;20535;-81
2021/04/28 06:54:46;;;;;;;7.43;5.80;;;8.70;86.30;;;;;;5105048;23;21333;-81
2021/04/28 06:56:48;;;;;;;8.27;5.63;;;8.80;85.50;;;;;;5095371;23;20537;-81
2021/04/28 06:58:51;;;;;;;7.30;5.37;;;9.00;86.00;;;;;;5101655;23;20458;-81
2021/04/28 07:00:53;;;;;;;11.93;5.87;;;9.10;84.80;;;;;;5093915;23;20436;-81
2021/04/28 07:02:56;;;;;;;6.10;5.17;;;9.20;84.80;;;;;;5094268;23;20439;-81
2021/04/28 07:04:58;;;;;;;8.33;5.80;;;9.40;84.30;;;;;;5103126;23;20494;-81
2021/04/28 07:07:00;;;;;;;6.23;5.43;;;9.50;82.90;;;;;;5093954;23;20783;-81
2021/04/28 07:09:03;;;;;;;6.03;5.30;;;9.40;82.50;;;;;;5093346;23;21132;-81
2021/04/28 07:11:07;;;;;;;6.23;5.63;;;9.50;82.70;;;;;;5095266;23;20457;-81
2021/04/28 07:13:09;;;;;;;6.50;5.20;;;9.80;82.30;;;;;;5105112;23;20982;-81
2021/04/28 07:15:12;;;;;;;7.97;5.70;;;9.70;81.80;;;;;;5104997;23;20429;-81
2021/04/28 07:17:16;;;;;;;7.37;4.57;;;9.90;82.30;;;;;;5096206;23;20506;-81
2021/04/28 07:19:19;;;;;;;7.40;5.73;;;9.80;81.40;;;;;;5104976;23;20440;-81
2021/04/28 07:21:21;;;;;;;6.57;5.37;;;9.90;81.70;;;;;;5105408;23;20455;-81
2021/04/28 07:23:23;;;;;;;6.53;5.50;;;9.90;80.90;;;;;;5096895;23;20493;-81
2021/04/28 07:25:26;;;;;;;6.70;6.00;;;9.80;80.60;;;;;;5096967;23;20489;-81
2021/04/28 07:27:28;;;;;;;7.20;5.77;;;9.80;80.90;;;;;;5096344;23;20429;-81
2021/04/28 07:29:33;;;;;;;9.20;5.87;;;10.00;81.30;;;;;;5104352;23;20479;-81
2021/04/28 07:31:35;;;;;;;6.07;5.47;;;10.30;80.50;;;;;;5105809;23;20421;-81
2021/04/28 07:33:38;;;;;;;6.20;5.60;;;10.10;79.00;;;;;;5104324;23;20443;-81
2021/04/28 07:35:40;;;;;;;5.90;5.40;;;10.10;78.90;;;;;;5104794;23;20421;-81
2021/04/28 07:37:44;;;;;;;6.60;5.43;;;10.30;79.50;;;;;;5104312;23;20812;-81
2021/04/28 07:39:46;;;;;;;7.33;5.33;;;10.30;78.90;;;;;;5104794;23;20426;-81
2021/04/28 07:41:49;;;;;;;7.93;5.37;;;10.40;79.20;;;;;;5105526;23;20453;-81
2021/04/28 07:43:51;;;;;;;9.20;6.10;;;10.50;79.00;;;;;;5097675;23;20458;-81
2021/04/28 07:45:54;;;;;;;7.43;5.47;;;10.70;79.10;;;;;;5104351;23;20443;-81
2021/04/28 07:47:56;;;;;;;6.67;6.07;;;10.90;78.90;;;;;;5105207;23;20454;-81
2021/04/28 07:50:00;;;;;;;8.00;6.17;;;11.00;77.30;;;;;;5104693;23;20485;-81
2021/04/28 07:52:02;;;;;;;10.13;5.17;;;11.00;78.20;;;;;;5105239;23;20425;-81
2021/04/28 07:54:05;;;;;;;9.90;5.90;;;11.20;77.40;;;;;;5105685;23;20796;-81
2021/04/28 07:56:07;;;;;;;7.90;5.93;;;11.30;77.20;;;;;;5097581;23;20541;-81
2021/04/28 07:58:10;;;;;;;6.23;5.60;;;11.30;76.80;;;;;;5097222;23;20452;-81
2021/04/28 08:00:14;;;;;;;8.40;6.20;;;11.50;76.50;;;;;;5104916;23;20479;-81
2021/04/28 08:02:16;;;;;;;7.80;5.80;;;11.60;76.20;;;;;;5105634;23;20425;-81
2021/04/28 08:04:20;;;;;;;7.23;6.53;;;11.60;75.50;;;;;;5097771;23;20461;-81
2021/04/28 08:06:22;;;;;;;7.00;6.30;;;11.60;74.50;;;;;;5096813;23;20976;-81
2021/04/28 08:08:24;;;;;;;7.43;6.40;;;11.40;74.80;;;;;;5096466;23;20994;-81
2021/04/28 08:10:26;;;;;;;6.73;6.13;;;11.70;75.80;;;;;;5105386;23;20478;-81
2021/04/28 08:12:28;;;;;;;6.73;6.03;;;11.90;75.40;;;;;;5104395;23;20450;-81
2021/04/28 08:14:31;;;;;;;6.80;6.10;;;12.00;73.10;;;;;;5096607;23;20517;-81
2021/04/28 08:16:33;;;;;;;7.10;6.50;;;12.20;73.50;;;;;;5095735;23;20450;-81
2021/04/28 08:18:35;;;;;;;9.70;6.90;;;12.20;72.80;;;;;;5104813;23;20458;-81
2021/04/28 08:20:38;;;;;;;8.00;5.90;;;12.40;72.90;;;;;;5104874;23;20458;-81
2021/04/28 08:22:40;;;;;;;8.27;5.90;;;12.20;71.80;;;;;;5106238;23;20450;-81
2021/04/28 08:24:42;;;;;;;7.07;5.80;;;12.30;72.00;;;;;;5097662;23;20784;-81
2021/04/28 08:26:45;;;;;;;7.20;5.73;;;12.30;71.80;;;;;;5096629;23;20458;-81
2021/04/28 08:28:47;;;;;;;7.60;6.40;;;12.50;72.00;;;;;;5096040;23;20465;-81
2021/04/28 08:30:50;;;;;;;9.00;6.60;;;12.40;71.30;;;;;;5096996;23;20510;-81
2021/04/28 08:32:52;;;;;;;7.40;6.47;;;12.40;70.90;;;;;;5096853;23;20494;-81
2021/04/28 08:34:58;;;;;;;8.90;6.83;;;12.40;71.50;;;;;;5105199;23;20497;-81
2021/04/28 08:37:00;;;;;;;9.97;6.40;;;12.50;71.00;;;;;;5104518;23;20538;-81
2021/04/28 08:39:03;;;;;;;7.90;6.17;;;12.80;71.40;;;;;;5104764;23;20453;-81
2021/04/28 08:41:06;;;;;;;6.97;5.50;;;13.00;70.10;;;;;;5104472;23;20553;-81
2021/04/28 08:43:08;;;;;;;7.20;6.50;;;13.10;68.90;;;;;;5104745;23;21016;-81
2021/04/28 08:45:11;;;;;;;10.20;7.70;;;13.10;68.30;;;;;;5096893;23;20894;-81
2021/04/28 08:47:14;;;;;;;10.97;7.07;;;12.90;67.10;;;;;;5105332;23;20443;-81
2021/04/28 08:49:16;;;;;;;8.53;6.90;;;13.00;68.10;;;;;;5104705;23;20958;-81
2021/04/28 08:51:19;;;;;;;6.40;5.80;;;13.10;67.80;;;;;;5097318;23;20784;-81
2021/04/28 08:53:22;;;;;;;8.17;6.57;;;13.30;67.60;;;;;;5097002;23;20455;-81
2021/04/28 08:55:24;;;;;;;11.20;7.00;;;13.30;67.00;;;;;;5096286;23;20482;-81
2021/04/28 08:57:25;;;;;;;9.57;6.23;;;13.20;67.40;;;;;;5104764;23;20455;-81
2021/04/28 08:59:28;;;;;;;10.80;6.53;;;13.40;67.20;;;;;;5104122;23;20482;-81
2021/04/28 09:01:31;;;;;;;9.70;7.60;;;13.40;66.60;;;;;;5105131;23;20455;-81
2021/04/28 09:03:39;;;;;;;9.83;7.10;;;13.40;65.90;;;;;;5105633;23;20453;-81
2021/04/28 09:05:42;;;;;;;7.10;6.40;;;13.50;65.80;;;;;;5097239;23;20454;-81
2021/04/28 09:07:46;;;;;;;8.80;7.17;;;13.40;66.20;;;;;;5096273;23;20454;-81
2021/04/28 09:10:10;;;;;;;8.73;6.63;;;13.70;66.50;;;;;;5097019;23;20451;-81
2021/04/28 09:12:14;;;;;;;8.83;7.03;;;13.90;65.00;;;;;;5106107;23;20509;-81
2021/04/28 09:14:17;;;;;;;7.97;6.80;;;13.80;64.50;;;;;;5105644;23;20503;-81
2021/04/28 09:16:19;;;;;;;9.07;7.20;;;13.90;65.20;;;;;;5104548;23;20501;-82
2021/04/28 09:18:36;;;;;;;7.77;6.60;;;13.80;64.00;;;;;;5104787;23;20450;-81
2021/04/28 09:23:06;;;;;;;8.20;6.97;;;13.70;65.10;;;;;;5091789;23;20500;-83
2021/04/28 09:25:08;;;;;;;9.67;7.20;;;13.80;64.80;;;;;;5092777;23;20461;-84
2021/04/28 09:27:26;;;;;;;7.40;6.70;;;13.50;64.40;;;;;;5101324;23;20515;-83
2021/04/28 09:29:30;;;;;;;7.17;6.47;;;13.40;65.30;;;;;;5091365;23;20525;-83
2021/04/28 09:31:32;;;;;;;8.37;6.90;;;13.60;65.30;;;;;;5094228;23;20461;-81
2021/04/28 09:33:46;;;;;;;8.60;6.77;;;13.90;65.40;;;;;;5101675;23;20451;-81
2021/04/28 09:35:58;;;;;;;9.07;6.43;;;14.20;64.80;;;;;;5093566;23;20513;-81
2021/04/28 09:38:02;;;;;;;7.83;6.80;;;14.20;63.80;;;;;;5093225;23;20455;-79
2021/04/28 09:40:05;;;;;;;13.27;9.93;;;14.10;64.20;;;;;;5106895;23;20458;-80
2021/04/28 09:42:07;;;;;;;9.97;8.50;;;14.20;64.20;;;;;;5093257;23;20466;-81
2021/04/28 09:44:31;;;;;;;10.63;8.67;;;14.40;63.50;;;;;;5101288;23;20450;-81
2021/04/28 09:46:33;;;;;;;7.83;6.90;;;14.50;62.90;;;;;;5092088;23;20459;-81
2021/04/28 09:48:39;;;;;;;8.37;6.23;;;14.70;62.50;;;;;;5092324;23;20458;-81
2021/04/28 09:50:41;;;;;;;8.30;7.17;;;14.80;62.70;;;;;;5101263;23;20543;-80
2021/04/28 09:52:44;;;;;;;7.20;6.43;;;15.00;62.50;;;;;;5100902;23;20787;-80
2021/04/28 09:54:49;;;;;;;7.63;6.83;;;15.20;61.70;;;;;;5092686;23;20459;-81
2021/04/28 09:56:51;;;;;;;7.47;6.70;;;15.10;61.90;;;;;;5091879;23;20542;-82
2021/04/28 09:58:53;;;;;;;10.60;7.03;;;15.20;62.60;;;;;;5092435;23;20455;-81
2021/04/28 10:00:58;;;;;;;7.90;7.00;;;15.30;61.60;;;;;;5092878;23;20496;-81
2021/04/28 10:03:02;;;;;;;7.63;6.83;;;15.20;61.60;;;;;;5101142;23;20455;-81
2021/04/28 10:05:19;;;;;;;7.87;6.87;;;15.20;61.00;;;;;;5101352;23;20457;-82
2021/04/28 10:07:26;;;;;;;7.77;6.97;;;15.50;61.40;;;;;;5092390;23;20459;-81
2021/04/28 10:09:31;;;;;;;11.03;9.17;;;15.80;61.10;;;;;;5098988;23;20474;-81
2021/04/28 10:11:34;;;;;;;9.60;6.53;;;16.00;59.70;;;;;;5090074;23;20537;-82
2021/04/28 10:13:36;;;;;;;7.23;6.33;;;15.70;59.30;;;;;;5090892;23;20459;-81
2021/04/28 10:15:50;;;;;;;7.90;6.33;;;15.40;60.10;;;;;;5090425;23;20930;-80
2021/04/28 10:17:53;;;;;;;7.13;6.43;;;15.70;60.00;;;;;;5089677;23;20546;-81
2021/04/28 10:19:58;;;;;;;7.47;6.03;;;15.80;58.90;;;;;;5099650;23;20458;-82
2021/04/28 10:22:04;;;;;;;8.47;6.33;;;15.50;58.90;;;;;;5101225;23;20765;-82
2021/04/28 10:24:08;;;;;;;7.23;6.53;;;15.50;59.50;;;;;;5102741;23;20485;-80
2021/04/28 10:26:10;;;;;;;7.90;6.40;;;15.50;59.10;;;;;;5102476;23;20447;-81
2021/04/28 10:28:13;;;;;;;8.53;6.70;;;15.40;59.70;;;;;;5101231;23;20486;-82
2021/04/28 10:30:17;;;;;;;6.97;6.27;;;15.70;59.80;;;;;;5101516;23;20447;-80
2021/04/28 10:32:21;;;;;;;7.53;6.73;;;15.80;59.50;;;;;;5093979;23;20457;-82
2021/04/28 10:34:29;;;;;;;8.00;6.77;;;16.20;59.80;;;;;;5101716;23;20462;-82
2021/04/28 10:36:32;;;;;;;8.07;6.80;;;16.30;59.50;;;;;;5093189;23;20777;-82
2021/04/28 10:38:34;;;;;;;7.10;6.23;;;16.40;59.80;;;;;;5100805;23;20447;-82
2021/04/28 10:40:37;;;;;;;7.80;7.00;;;16.40;59.50;;;;;;5093544;23;20493;-82
2021/04/28 10:42:39;;;;;;;7.33;6.40;;;16.20;59.30;;;;;;5101491;23;20457;-82
2021/04/28 10:44:46;;;;;;;7.70;6.77;;;16.20;60.30;;;;;;5107411;23;20454;-82
2021/04/28 10:46:48;;;;;;;8.17;7.03;;;16.30;60.40;;;;;;5101591;23;20489;-80
2021/04/28 10:48:52;;;;;;;8.20;7.40;;;16.30;59.20;;;;;;5091796;23;20459;-82
2021/04/28 10:50:54;;;;;;;8.03;7.23;;;16.40;59.50;;;;;;5100167;23;20453;-81